sensor_id;sensor_type;location;lat;lon;timestamp;pressure;altitude;pressure_sealevel;temperature;humidity
56174;BME280;42058;52.308;20.924;2022-09-24T00:01:07;100783.31;;;9.45;100.00
56174;BME280;42058;52.308;20.924;2022-09-24T00:03:39;100776.78;;;9.41;100.00
56174;BME280;42058;52.308;20.924;2022-09-24T00:06:07;100779.03;;;9.39;100.00
56174;BME280;42058;52.308;20.924;2022-09-24T00:08:34;100777.33;;;9.36;100.00
56174;BME280;42058;52.308;20.924;2022-09-24T00:11:03;100777.37;;;9.33;100.00
56174;BME280;42058;52.308;20.924;2022-09-24T00:13:32;100777.84;;;9.31;100.00
56174;BME280;42058;52.308;20.924;2022-09-24T00:16:05;100775.26;;;9.28;100.00
56174;BME280;42058;52.308;20.924;2022-09-24T00:18:33;100774.42;;;9.26;100.00
56174;BME280;42058;52.308;20.924;2022-09-24T00:21:00;100774.89;;;9.24;100.00
56174;BME280;42058;52.308;20.924;2022-09-24T00:23:28;100769.67;;;9.21;100.00
56174;BME280;42058;52.308;20.924;2022-09-24T00:25:54;100770.19;;;9.16;100.00
56174;BME280;42058;52.308;20.924;2022-09-24T00:28:39;100767.58;;;9.14;100.00
56174;BME280;42058;52.308;20.924;2022-09-24T00:31:06;100769.38;;;9.11;100.00
56174;BME280;42058;52.308;20.924;2022-09-24T00:33:34;100761.14;;;9.07;100.00
56174;BME280;42058;52.308;20.924;2022-09-24T00:36:02;100760.75;;;9.04;100.00
56174;BME280;42058;52.308;20.924;2022-09-24T00:38:32;100760.31;;;9.03;100.00
56174;BME280;42058;52.308;20.924;2022-09-24T00:41:00;100762.55;;;9.00;100.00
56174;BME280;42058;52.308;20.924;2022-09-24T00:43:32;100756.03;;;8.97;100.00
56174;BME280;42058;52.308;20.924;2022-09-24T00:46:27;100757.34;;;8.97;100.00
56174;BME280;42058;52.308;20.924;2022-09-24T00:49:18;100762.63;;;8.94;100.00
56174;BME280;42058;52.308;20.924;2022-09-24T00:51:50;100759.22;;;8.89;100.00
56174;BME280;42058;52.308;20.924;2022-09-24T00:54:22;100754.48;;;8.84;100.00
56174;BME280;42058;52.308;20.924;2022-09-24T00:56:52;100749.70;;;8.82;100.00
56174;BME280;42058;52.308;20.924;2022-09-24T00:59:20;100750.58;;;8.81;100.00
56174;BME280;42058;52.308;20.924;2022-09-24T01:01:49;100752.80;;;8.80;100.00
56174;BME280;42058;52.308;20.924;2022-09-24T01:04:18;100754.98;;;8.79;100.00
56174;BME280;42058;52.308;20.924;2022-09-24T01:06:47;100746.27;;;8.77;100.00
56174;BME280;42058;52.308;20.924;2022-09-24T01:09:15;100738.45;;;8.72;100.00
56174;BME280;42058;52.308;20.924;2022-09-24T01:12:05;100744.59;;;8.73;100.00
56174;BME280;42058;52.308;20.924;2022-09-24T01:14:46;100743.74;;;8.71;100.00
56174;BME280;42058;52.308;20.924;2022-09-24T01:17:36;100752.50;;;8.68;100.00
56174;BME280;42058;52.308;20.924;2022-09-24T01:23:44;100745.60;;;8.61;100.00
56174;BME280;42058;52.308;20.924;2022-09-24T01:26:38;100739.06;;;8.59;100.00
56174;BME280;42058;52.308;20.924;2022-09-24T01:34:59;100740.49;;;8.50;100.00
56174;BME280;42058;52.308;20.924;2022-09-24T01:37:30;100740.98;;;8.46;100.00
56174;BME280;42058;52.308;20.924;2022-09-24T01:39:58;100740.59;;;8.42;100.00
56174;BME280;42058;52.308;20.924;2022-09-24T01:42:27;100741.03;;;8.40;100.00
56174;BME280;42058;52.308;20.924;2022-09-24T01:44:55;100737.11;;;8.39;100.00
56174;BME280;42058;52.308;20.924;2022-09-24T01:47:32;100730.17;;;8.36;100.00
56174;BME280;42058;52.308;20.924;2022-09-24T01:49:57;100732.36;;;8.34;100.00
56174;BME280;42058;52.308;20.924;2022-09-24T01:52:32;100731.11;;;8.31;100.00
56174;BME280;42058;52.308;20.924;2022-09-24T01:55:02;100723.68;;;8.28;100.00
56174;BME280;42058;52.308;20.924;2022-09-24T01:57:40;100721.06;;;8.28;100.00
56174;BME280;42058;52.308;20.924;2022-09-24T02:00:07;100721.98;;;8.26;100.00
56174;BME280;42058;52.308;20.924;2022-09-24T02:03:05;100725.52;;;8.23;100.00
56174;BME280;42058;52.308;20.924;2022-09-24T02:05:41;100729.48;;;8.20;100.00
56174;BME280;42058;52.308;20.924;2022-09-24T02:08:28;100730.81;;;8.17;100.00
56174;BME280;42058;52.308;20.924;2022-09-24T02:11:11;100730.44;;;8.13;100.00
56174;BME280;42058;52.308;20.924;2022-09-24T02:16:25;100725.23;;;8.08;100.00
56174;BME280;42058;52.308;20.924;2022-09-24T02:19:08;100722.66;;;8.05;100.00
56174;BME280;42058;52.308;20.924;2022-09-24T02:21:34;100723.53;;;8.04;100.00
56174;BME280;42058;52.308;20.924;2022-09-24T02:24:10;100730.98;;;8.05;100.00
56174;BME280;42058;52.308;20.924;2022-09-24T02:26:41;100727.06;;;8.03;100.00
56174;BME280;42058;52.308;20.924;2022-09-24T02:29:08;100729.23;;;8.04;100.00
56174;BME280;42058;52.308;20.924;2022-09-24T02:31:37;100730.56;;;8.01;100.00
56174;BME280;42058;52.308;20.924;2022-09-24T02:34:08;100729.72;;;7.99;100.00
56174;BME280;42058;52.308;20.924;2022-09-24T02:36:39;100725.37;;;7.98;100.00
56174;BME280;42058;52.308;20.924;2022-09-24T02:39:06;100731.52;;;7.94;100.00
56174;BME280;42058;52.308;20.924;2022-09-24T02:41:32;100730.68;;;7.90;100.00
56174;BME280;42058;52.308;20.924;2022-09-24T02:43:59;100721.56;;;7.87;100.00
56174;BME280;42058;52.308;20.924;2022-09-24T02:46:25;100728.59;;;7.83;100.00
56174;BME280;42058;52.308;20.924;2022-09-24T02:48:51;100727.30;;;7.80;100.00
56174;BME280;42058;52.308;20.924;2022-09-24T02:51:17;100725.55;;;7.79;100.00
56174;BME280;42058;52.308;20.924;2022-09-24T02:53:43;100723.83;;;7.78;100.00
56174;BME280;42058;52.308;20.924;2022-09-24T02:56:09;100723.44;;;7.74;100.00
56174;BME280;42058;52.308;20.924;2022-09-24T02:58:36;100715.59;;;7.73;100.00
56174;BME280;42058;52.308;20.924;2022-09-24T03:01:03;100709.92;;;7.70;100.00
56174;BME280;42058;52.308;20.924;2022-09-24T03:03:30;100718.70;;;7.67;100.00
56174;BME280;42058;52.308;20.924;2022-09-24T03:05:57;100717.39;;;7.66;100.00
56174;BME280;42058;52.308;20.924;2022-09-24T03:08:23;100719.17;;;7.64;100.00
56174;BME280;42058;52.308;20.924;2022-09-24T03:10:50;100720.03;;;7.63;100.00
56174;BME280;42058;52.308;20.924;2022-09-24T03:13:17;100720.94;;;7.62;100.00
56174;BME280;42058;52.308;20.924;2022-09-24T03:15:44;100717.47;;;7.60;100.00
56174;BME280;42058;52.308;20.924;2022-09-24T03:18:11;100716.62;;;7.58;100.00
56174;BME280;42058;52.308;20.924;2022-09-24T03:20:38;100714.42;;;7.57;100.00
56174;BME280;42058;52.308;20.924;2022-09-24T03:23:05;100720.57;;;7.55;100.00
56174;BME280;42058;52.308;20.924;2022-09-24T03:25:31;100712.72;;;7.53;100.00
56174;BME280;42058;52.308;20.924;2022-09-24T03:27:57;100713.18;;;7.51;100.00
56174;BME280;42058;52.308;20.924;2022-09-24T03:30:23;100711.87;;;7.49;100.00
56174;BME280;42058;52.308;20.924;2022-09-24T03:33:08;100709.27;;;7.48;100.00
56174;BME280;42058;52.308;20.924;2022-09-24T03:35:34;100709.28;;;7.46;100.00
56174;BME280;42058;52.308;20.924;2022-09-24T03:38:00;100706.71;;;7.43;100.00
56174;BME280;42058;52.308;20.924;2022-09-24T03:40:27;100707.13;;;7.43;100.00
56174;BME280;42058;52.308;20.924;2022-09-24T03:42:53;100707.64;;;7.38;100.00
56174;BME280;42058;52.308;20.924;2022-09-24T03:45:19;100701.97;;;7.35;100.00
56174;BME280;42058;52.308;20.924;2022-09-24T03:47:45;100708.52;;;7.35;100.00
56174;BME280;42058;52.308;20.924;2022-09-24T03:50:11;100710.28;;;7.33;100.00
56174;BME280;42058;52.308;20.924;2022-09-24T03:52:38;100708.98;;;7.30;100.00
56174;BME280;42058;52.308;20.924;2022-09-24T03:55:05;100707.27;;;7.29;100.00
56174;BME280;42058;52.308;20.924;2022-09-24T03:57:32;100713.38;;;7.28;100.00
56174;BME280;42058;52.308;20.924;2022-09-24T03:59:58;100711.22;;;7.26;100.00
56174;BME280;42058;52.308;20.924;2022-09-24T04:02:24;100716.04;;;7.25;100.00
56174;BME280;42058;52.308;20.924;2022-09-24T04:04:50;100723.45;;;7.24;100.00
56174;BME280;42058;52.308;20.924;2022-09-24T04:07:17;100719.97;;;7.23;100.00
56174;BME280;42058;52.308;20.924;2022-09-24T04:09:43;100716.05;;;7.22;100.00
56174;BME280;42058;52.308;20.924;2022-09-24T04:12:09;100718.23;;;7.21;100.00
56174;BME280;42058;52.308;20.924;2022-09-24T04:14:35;100722.20;;;7.18;100.00
56174;BME280;42058;52.308;20.924;2022-09-24T04:17:01;100719.59;;;7.15;100.00
56174;BME280;42058;52.308;20.924;2022-09-24T04:19:28;100720.50;;;7.12;100.00
56174;BME280;42058;52.308;20.924;2022-09-24T04:21:56;100726.16;;;7.11;100.00
56174;BME280;42058;52.308;20.924;2022-09-24T04:24:22;100717.05;;;7.08;100.00
56174;BME280;42058;52.308;20.924;2022-09-24T04:26:49;100723.59;;;7.07;100.00
56174;BME280;42058;52.308;20.924;2022-09-24T04:29:15;100713.99;;;7.04;100.00
56174;BME280;42058;52.308;20.924;2022-09-24T04:31:41;100717.08;;;7.01;100.00
56174;BME280;42058;52.308;20.924;2022-09-24T04:34:08;100715.36;;;6.98;100.00
56174;BME280;42058;52.308;20.924;2022-09-24T04:36:34;100714.92;;;6.97;100.00
56174;BME280;42058;52.308;20.924;2022-09-24T04:39:01;100715.82;;;6.95;100.00
56174;BME280;42058;52.308;20.924;2022-09-24T04:41:28;100717.12;;;6.96;100.00
56174;BME280;42058;52.308;20.924;2022-09-24T04:43:56;100715.82;;;6.95;100.00
56174;BME280;42058;52.308;20.924;2022-09-24T04:46:22;100715.37;;;6.95;100.00
56174;BME280;42058;52.308;20.924;2022-09-24T04:48:48;100717.57;;;6.96;100.00
56174;BME280;42058;52.308;20.924;2022-09-24T04:51:15;100712.75;;;6.95;100.00
56174;BME280;42058;52.308;20.924;2022-09-24T04:53:43;100714.96;;;6.94;100.00
56174;BME280;42058;52.308;20.924;2022-09-24T04:56:11;100718.88;;;6.94;100.00
56174;BME280;42058;52.308;20.924;2022-09-24T04:58:38;100719.75;;;6.91;100.00
56174;BME280;42058;52.308;20.924;2022-09-24T05:01:04;100723.27;;;6.90;100.00
56174;BME280;42058;52.308;20.924;2022-09-24T05:03:31;100722.83;;;6.89;100.00
56174;BME280;42058;52.308;20.924;2022-09-24T05:05:58;100720.20;;;6.91;100.00
56174;BME280;42058;52.308;20.924;2022-09-24T05:08:24;100724.12;;;6.94;100.00
56174;BME280;42058;52.308;20.924;2022-09-24T05:10:50;100723.66;;;6.96;100.00
56174;BME280;42058;52.308;20.924;2022-09-24T05:13:19;100720.15;;;6.97;100.00
56174;BME280;42058;52.308;20.924;2022-09-24T05:15:46;100721.45;;;6.97;100.00
56174;BME280;42058;52.308;20.924;2022-09-24T05:18:12;100723.66;;;6.99;100.00
56174;BME280;42058;52.308;20.924;2022-09-24T05:20:38;100723.20;;;7.00;100.00
56174;BME280;42058;52.308;20.924;2022-09-24T05:23:04;100720.14;;;7.00;100.00
56174;BME280;42058;52.308;20.924;2022-09-24T05:25:30;100725.36;;;7.03;100.00
56174;BME280;42058;52.308;20.924;2022-09-24T05:27:56;100720.11;;;7.06;100.00
56174;BME280;42058;52.308;20.924;2022-09-24T05:30:24;100725.30;;;7.09;100.00
56174;BME280;42058;52.308;20.924;2022-09-24T05:32:50;100722.67;;;7.12;100.00
56174;BME280;42058;52.308;20.924;2022-09-24T05:35:20;100721.77;;;7.15;100.00
56174;BME280;42058;52.308;20.924;2022-09-24T05:37:48;100720.89;;;7.18;100.00
56174;BME280;42058;52.308;20.924;2022-09-24T05:40:14;100717.36;;;7.22;100.00
56174;BME280;42058;52.308;20.924;2022-09-24T05:43:00;100716.89;;;7.27;100.00
56174;BME280;42058;52.308;20.924;2022-09-24T05:45:31;100716.83;;;7.33;100.00
56174;BME280;42058;52.308;20.924;2022-09-24T05:47:55;100714.17;;;7.39;100.00
56174;BME280;42058;52.308;20.924;2022-09-24T05:50:21;100715.88;;;7.43;100.00
56174;BME280;42058;52.308;20.924;2022-09-24T05:52:48;100716.26;;;7.49;100.00
56174;BME280;42058;52.308;20.924;2022-09-24T05:55:14;100714.89;;;7.54;100.00
56174;BME280;42058;52.308;20.924;2022-09-24T05:57:40;100717.03;;;7.59;100.00
56174;BME280;42058;52.308;20.924;2022-09-24T06:00:06;100715.23;;;7.64;100.00
56174;BME280;42058;52.308;20.924;2022-09-24T06:02:39;100715.61;;;7.71;100.00
56174;BME280;42058;52.308;20.924;2022-09-24T06:05:05;100717.73;;;7.78;100.00
56174;BME280;42058;52.308;20.924;2022-09-24T06:07:32;100719.41;;;7.85;100.00
56174;BME280;42058;52.308;20.924;2022-09-24T06:09:58;100718.87;;;7.92;100.00
56174;BME280;42058;52.308;20.924;2022-09-24T06:12:25;100723.16;;;7.99;100.00
56174;BME280;42058;52.308;20.924;2022-09-24T06:14:51;100720.91;;;8.04;100.00
56174;BME280;42058;52.308;20.924;2022-09-24T06:17:20;100723.89;;;8.12;100.00
56174;BME280;42058;52.308;20.924;2022-09-24T06:19:48;100720.30;;;8.20;100.00
56174;BME280;42058;52.308;20.924;2022-09-24T06:22:14;100722.36;;;8.30;100.00
56174;BME280;42058;52.308;20.924;2022-09-24T06:24:40;100724.00;;;8.39;100.00
56174;BME280;42058;52.308;20.924;2022-09-24T06:27:06;100720.89;;;8.47;100.00
56174;BME280;42058;52.308;20.924;2022-09-24T06:29:32;100723.80;;;8.56;100.00
56174;BME280;42058;52.308;20.924;2022-09-24T06:31:59;100725.91;;;8.62;100.00
56174;BME280;42058;52.308;20.924;2022-09-24T06:34:27;100727.11;;;8.70;100.00
56174;BME280;42058;52.308;20.924;2022-09-24T06:36:53;100730.51;;;8.78;100.00
56174;BME280;42058;52.308;20.924;2022-09-24T06:39:22;100731.27;;;8.85;100.00
56174;BME280;42058;52.308;20.924;2022-09-24T06:41:48;100735.97;;;8.93;100.00
56174;BME280;42058;52.308;20.924;2022-09-24T06:44:16;100730.15;;;9.01;100.00
56174;BME280;42058;52.308;20.924;2022-09-24T06:46:43;100730.00;;;9.11;100.00
56174;BME280;42058;52.308;20.924;2022-09-24T06:49:10;100728.14;;;9.19;100.00
56174;BME280;42058;52.308;20.924;2022-09-24T06:51:38;100733.27;;;9.27;100.00
56174;BME280;42058;52.308;20.924;2022-09-24T06:54:04;100727.47;;;9.33;100.00
56174;BME280;42058;52.308;20.924;2022-09-24T06:56:31;100738.30;;;9.40;100.00
56174;BME280;42058;52.308;20.924;2022-09-24T06:58:57;100739.52;;;9.45;100.00
56174;BME280;42058;52.308;20.924;2022-09-24T07:01:23;100728.92;;;9.51;100.00
56174;BME280;42058;52.308;20.924;2022-09-24T07:03:49;100737.12;;;9.58;100.00
56174;BME280;42058;52.308;20.924;2022-09-24T07:06:15;100733.89;;;9.67;100.00
56174;BME280;42058;52.308;20.924;2022-09-24T07:08:41;100731.13;;;9.74;100.00
56174;BME280;42058;52.308;20.924;2022-09-24T07:11:07;100739.31;;;9.81;100.00
56174;BME280;42058;52.308;20.924;2022-09-24T07:13:34;100739.64;;;9.87;100.00
56174;BME280;42058;52.308;20.924;2022-09-24T07:16:00;100734.30;;;9.93;100.00
56174;BME280;42058;52.308;20.924;2022-09-24T07:18:26;100738.94;;;10.01;100.00
56174;BME280;42058;52.308;20.924;2022-09-24T07:20:54;100741.41;;;10.09;100.00
56174;BME280;42058;52.308;20.924;2022-09-24T07:23:21;100740.38;;;10.18;100.00
56174;BME280;42058;52.308;20.924;2022-09-24T07:25:48;100740.21;;;10.26;100.00
56174;BME280;42058;52.308;20.924;2022-09-24T07:28:16;100748.03;;;10.32;100.00
56174;BME280;42058;52.308;20.924;2022-09-24T07:30:43;100747.02;;;10.39;100.00
56174;BME280;42058;52.308;20.924;2022-09-24T07:33:11;100747.79;;;10.44;100.00
56174;BME280;42058;52.308;20.924;2022-09-24T07:35:38;100739.33;;;10.49;100.00
56174;BME280;42058;52.308;20.924;2022-09-24T07:38:08;100751.91;;;10.56;100.00
56174;BME280;42058;52.308;20.924;2022-09-24T07:40:38;100753.52;;;10.63;100.00
56174;BME280;42058;52.308;20.924;2022-09-24T07:43:04;100746.79;;;10.69;100.00
56174;BME280;42058;52.308;20.924;2022-09-24T07:45:32;100745.33;;;10.77;100.00
56174;BME280;42058;52.308;20.924;2022-09-24T07:48:00;100750.81;;;10.86;100.00
56174;BME280;42058;52.308;20.924;2022-09-24T07:50:30;100744.94;;;10.94;100.00
56174;BME280;42058;52.308;20.924;2022-09-24T07:52:59;100740.80;;;11.02;100.00
56174;BME280;42058;52.308;20.924;2022-09-24T07:55:28;100736.63;;;11.11;100.00
56174;BME280;42058;52.308;20.924;2022-09-24T07:57:54;100740.36;;;11.20;100.00
56174;BME280;42058;52.308;20.924;2022-09-24T08:00:23;100740.56;;;11.30;100.00
56174;BME280;42058;52.308;20.924;2022-09-24T08:02:50;100738.09;;;11.41;100.00
56174;BME280;42058;52.308;20.924;2022-09-24T08:05:18;100737.47;;;11.49;100.00
56174;BME280;42058;52.308;20.924;2022-09-24T08:07:52;100731.06;;;11.59;100.00
56174;BME280;42058;52.308;20.924;2022-09-24T08:10:20;100732.54;;;11.69;100.00
56174;BME280;42058;52.308;20.924;2022-09-24T08:12:49;100726.59;;;11.79;100.00
56174;BME280;42058;52.308;20.924;2022-09-24T08:15:15;100732.97;;;11.87;100.00
56174;BME280;42058;52.308;20.924;2022-09-24T08:17:43;100725.84;;;11.92;100.00
56174;BME280;42058;52.308;20.924;2022-09-24T08:20:09;100723.84;;;12.00;100.00
56174;BME280;42058;52.308;20.924;2022-09-24T08:22:37;100725.86;;;12.07;100.00
56174;BME280;42058;52.308;20.924;2022-09-24T08:25:03;100727.92;;;12.12;100.00
56174;BME280;42058;52.308;20.924;2022-09-24T08:27:31;100721.11;;;12.20;100.00
56174;BME280;42058;52.308;20.924;2022-09-24T08:29:58;100724.72;;;12.32;100.00
56174;BME280;42058;52.308;20.924;2022-09-24T08:32:26;100725.27;;;12.43;100.00
56174;BME280;42058;52.308;20.924;2022-09-24T08:34:54;100725.80;;;12.55;100.00
56174;BME280;42058;52.308;20.924;2022-09-24T08:37:20;100724.51;;;12.68;100.00
56174;BME280;42058;52.308;20.924;2022-09-24T08:39:46;100723.63;;;12.82;100.00
56174;BME280;42058;52.308;20.924;2022-09-24T08:42:19;100725.39;;;12.97;100.00
56174;BME280;42058;52.308;20.924;2022-09-24T08:44:45;100731.61;;;13.09;100.00
56174;BME280;42058;52.308;20.924;2022-09-24T08:50:19;100727.58;;;13.39;100.00
56174;BME280;42058;52.308;20.924;2022-09-24T08:52:54;100724.48;;;13.53;100.00
56174;BME280;42058;52.308;20.924;2022-09-24T08:55:39;100723.13;;;13.66;99.60
56174;BME280;42058;52.308;20.924;2022-09-24T08:58:25;100723.56;;;13.79;98.85
56174;BME280;42058;52.308;20.924;2022-09-24T09:00:59;100724.52;;;13.90;97.41
56174;BME280;42058;52.308;20.924;2022-09-24T09:03:45;100724.13;;;14.00;96.52
56174;BME280;42058;52.308;20.924;2022-09-24T09:06:44;100726.83;;;14.11;97.56
56174;BME280;42058;52.308;20.924;2022-09-24T09:09:22;100723.46;;;14.19;96.44
56174;BME280;42058;52.308;20.924;2022-09-24T09:11:57;100727.89;;;14.30;96.44
56174;BME280;42058;52.308;20.924;2022-09-24T09:14:44;100716.16;;;14.37;94.58
56174;BME280;42058;52.308;20.924;2022-09-24T09:20:18;100723.39;;;14.56;91.47
56174;BME280;42058;52.308;20.924;2022-09-24T09:22:49;100723.39;;;14.56;91.47
56174;BME280;42058;52.308;20.924;2022-09-24T09:25:21;100719.15;;;14.64;92.17
56174;BME280;42058;52.308;20.924;2022-09-24T09:28:09;100712.69;;;14.71;91.54
56174;BME280;42058;52.308;20.924;2022-09-24T09:31:11;100716.97;;;14.75;89.18
56174;BME280;42058;52.308;20.924;2022-09-24T09:42:32;100701.84;;;14.89;85.27
56174;BME280;42058;52.308;20.924;2022-09-24T09:45:39;100705.97;;;14.96;85.82
56174;BME280;42058;52.308;20.924;2022-09-24T09:48:24;100705.97;;;14.96;85.82
56174;BME280;42058;52.308;20.924;2022-09-24T09:50:58;100699.66;;;14.98;83.47
56174;BME280;42058;52.308;20.924;2022-09-24T09:53:29;100703.26;;;14.97;83.37
56174;BME280;42058;52.308;20.924;2022-09-24T09:56:05;100703.26;;;14.97;83.37
56174;BME280;42058;52.308;20.924;2022-09-24T09:58:33;100707.91;;;15.03;79.31
56174;BME280;42058;52.308;20.924;2022-09-24T10:06:27;100707.44;;;15.03;79.41
56174;BME280;42058;52.308;20.924;2022-09-24T10:09:14;100699.44;;;15.05;81.70
56174;BME280;42058;52.308;20.924;2022-09-24T10:11:41;100700.29;;;15.05;80.77
56174;BME280;42058;52.308;20.924;2022-09-24T10:14:13;100700.29;;;15.05;80.77
56174;BME280;42058;52.308;20.924;2022-09-24T10:16:43;100685.56;;;14.98;82.27
56174;BME280;42058;52.308;20.924;2022-09-24T10:19:23;100693.28;;;15.04;81.28
56174;BME280;42058;52.308;20.924;2022-09-24T10:21:53;100693.28;;;15.04;81.28
56174;BME280;42058;52.308;20.924;2022-09-24T10:24:24;100697.58;;;15.07;81.68
56174;BME280;42058;52.308;20.924;2022-09-24T10:26:56;100697.58;;;15.07;81.68
56174;BME280;42058;52.308;20.924;2022-09-24T10:29:30;100698.84;;;15.08;81.78
56174;BME280;42058;52.308;20.924;2022-09-24T10:32:22;100700.97;;;15.10;79.85
56174;BME280;42058;52.308;20.924;2022-09-24T10:35:00;100694.61;;;15.14;78.66
56174;BME280;42058;52.308;20.924;2022-09-24T10:37:28;100686.54;;;15.17;79.14
56174;BME280;42058;52.308;20.924;2022-09-24T10:40:13;100676.84;;;15.16;78.76
56174;BME280;42058;52.308;20.924;2022-09-24T10:42:53;100680.06;;;15.25;79.02
56174;BME280;42058;52.308;20.924;2022-09-24T10:46:07;100678.20;;;15.27;78.82
56174;BME280;42058;52.308;20.924;2022-09-24T10:48:20;100672.90;;;15.27;78.20
56174;BME280;42058;52.308;20.924;2022-09-24T10:51:16;100664.03;;;15.28;78.08
56174;BME280;42058;52.308;20.924;2022-09-24T10:56:42;100665.94;;;15.34;78.44
56174;BME280;42058;52.308;20.924;2022-09-24T10:59:38;100672.33;;;15.41;77.37
56174;BME280;42058;52.308;20.924;2022-09-24T11:04:58;100672.11;;;15.45;78.15
56174;BME280;42058;52.308;20.924;2022-09-24T11:13:32;100666.55;;;15.62;75.92
56174;BME280;42058;52.308;20.924;2022-09-24T11:19:44;100663.89;;;15.72;75.17
56174;BME280;42058;52.308;20.924;2022-09-24T11:22:15;100668.09;;;15.78;74.54
56174;BME280;42058;52.308;20.924;2022-09-24T11:24:56;100664.78;;;15.83;75.85
56174;BME280;42058;52.308;20.924;2022-09-24T11:27:44;100661.11;;;15.85;74.59
56174;BME280;42058;52.308;20.924;2022-09-24T11:30:21;100657.92;;;15.87;73.56
56174;BME280;42058;52.308;20.924;2022-09-24T11:36:12;100650.39;;;15.97;73.94
56174;BME280;42058;52.308;20.924;2022-09-24T11:39:02;100657.63;;;16.04;72.85
56174;BME280;42058;52.308;20.924;2022-09-24T11:44:41;100659.12;;;16.20;72.26
56174;BME280;42058;52.308;20.924;2022-09-24T11:47:22;100655.55;;;16.29;70.52
56174;BME280;42058;52.308;20.924;2022-09-24T11:57:43;100638.64;;;16.60;67.45
56174;BME280;42058;52.308;20.924;2022-09-24T12:00:16;100642.56;;;16.70;67.13
56174;BME280;42058;52.308;20.924;2022-09-24T12:02:48;100647.52;;;16.78;65.22
56174;BME280;42058;52.308;20.924;2022-09-24T12:05:21;100632.80;;;16.79;66.16
56174;BME280;42058;52.308;20.924;2022-09-24T12:08:11;100639.84;;;16.90;66.04
56174;BME280;42058;52.308;20.924;2022-09-24T12:13:44;100633.89;;;17.03;64.92
56174;BME280;42058;52.308;20.924;2022-09-24T12:16:20;100633.13;;;17.09;65.03
56174;BME280;42058;52.308;20.924;2022-09-24T12:19:11;100631.47;;;17.16;64.66
56174;BME280;42058;52.308;20.924;2022-09-24T12:21:53;100626.23;;;17.23;64.77
56174;BME280;42058;52.308;20.924;2022-09-24T12:24:32;100630.30;;;17.30;63.24
56174;BME280;42058;52.308;20.924;2022-09-24T12:27:12;100618.19;;;17.33;62.77
56174;BME280;42058;52.308;20.924;2022-09-24T12:29:49;100620.52;;;17.39;62.71
56174;BME280;42058;52.308;20.924;2022-09-24T12:32:41;100616.00;;;17.41;62.14
56174;BME280;42058;52.308;20.924;2022-09-24T12:35:32;100622.09;;;17.43;61.69
56174;BME280;42058;52.308;20.924;2022-09-24T12:38:03;100612.23;;;17.45;60.99
56174;BME280;42058;52.308;20.924;2022-09-24T12:43:55;100613.01;;;17.47;60.69
56174;BME280;42058;52.308;20.924;2022-09-24T12:46:41;100606.44;;;17.46;59.32
56174;BME280;42058;52.308;20.924;2022-09-24T12:52:03;100604.48;;;17.41;58.47
56174;BME280;42058;52.308;20.924;2022-09-24T12:54:44;100604.73;;;17.36;58.39
56174;BME280;42058;52.308;20.924;2022-09-24T12:57:21;100607.06;;;17.34;59.49
56174;BME280;42058;52.308;20.924;2022-09-24T12:59:51;100603.33;;;17.29;59.83
56174;BME280;42058;52.308;20.924;2022-09-24T13:05:26;100605.51;;;17.21;59.99
56174;BME280;42058;52.308;20.924;2022-09-24T13:08:03;100603.55;;;17.16;60.32
56174;BME280;42058;52.308;20.924;2022-09-24T13:10:56;100605.12;;;17.11;61.03
56174;BME280;42058;52.308;20.924;2022-09-24T13:13:32;100604.98;;;17.05;60.30
56174;BME280;42058;52.308;20.924;2022-09-24T13:16:18;100610.06;;;17.01;60.92
56174;BME280;42058;52.308;20.924;2022-09-24T13:18:50;100605.89;;;16.96;61.09
56174;BME280;42058;52.308;20.924;2022-09-24T13:21:20;100611.45;;;16.91;60.80
56174;BME280;42058;52.308;20.924;2022-09-24T13:23:49;100603.32;;;16.85;60.97
56174;BME280;42058;52.308;20.924;2022-09-24T13:26:30;100606.56;;;16.82;60.47
56174;BME280;42058;52.308;20.924;2022-09-24T13:29:03;100600.61;;;16.77;60.58
56174;BME280;42058;52.308;20.924;2022-09-24T13:34:13;100597.86;;;16.69;59.88
56174;BME280;42058;52.308;20.924;2022-09-24T13:37:10;100594.97;;;16.65;59.95
56174;BME280;42058;52.308;20.924;2022-09-24T13:39:44;100591.98;;;16.63;59.24
56174;BME280;42058;52.308;20.924;2022-09-24T13:42:37;100592.63;;;16.59;59.49
56174;BME280;42058;52.308;20.924;2022-09-24T13:45:19;100596.75;;;16.56;59.56
56174;BME280;42058;52.308;20.924;2022-09-24T13:47:57;100596.52;;;16.52;59.59
56174;BME280;42058;52.308;20.924;2022-09-24T13:50:30;100593.59;;;16.48;59.78
56174;BME280;42058;52.308;20.924;2022-09-24T13:55:44;100600.55;;;16.42;59.93
56174;BME280;42058;52.308;20.924;2022-09-24T14:01:02;100590.23;;;16.36;60.80
56174;BME280;42058;52.308;20.924;2022-09-24T14:03:32;100590.73;;;16.33;61.36
56174;BME280;42058;52.308;20.924;2022-09-24T14:06:01;100595.67;;;16.32;61.79
56174;BME280;42058;52.308;20.924;2022-09-24T14:08:41;100591.35;;;16.30;62.25
56174;BME280;42058;52.308;20.924;2022-09-24T14:11:20;100589.23;;;16.28;62.81
56174;BME280;42058;52.308;20.924;2022-09-24T14:13:51;100590.67;;;16.26;63.03
56174;BME280;42058;52.308;20.924;2022-09-24T14:16:21;100581.98;;;16.23;63.13
56174;BME280;42058;52.308;20.924;2022-09-24T14:19:01;100586.48;;;16.21;63.46
56174;BME280;42058;52.308;20.924;2022-09-24T14:21:52;100586.17;;;16.18;62.63
56174;BME280;42058;52.308;20.924;2022-09-24T14:24:24;100584.44;;;16.17;62.57